Terminal Aerodrome Forecast
Issued by NWS St Louis, MO

Home | Current Version | Previous Version | Text Only | Print | Product List | Glossary On
Versions: 1 2 3 4 5 6 7 8 9 10 11 12 13 14 15 16 17 18 19 20 21 22 23
131
FTUS43 KLSX 141135
TAFCOU
TAF
KCOU 141135Z 1412/1512 00000KT P6SM BKN018
     FM141700 18005KT P6SM BKN040 BKN200
     FM150900 17004KT 6SM BR SCT100=

USA.gov is the U.S. government's official web portal to all federal, state and local government web resources and services.